Time;durP1;ratioP1;P1;durP2;ratioP2;P2;SDS_P1;SDS_P2;PMS_P1;PMS_P2;Temp;Humidity;BMP_temperature;BMP_pressure;BME280_temperature;BME280_humidity;BME280_pressure;Samples;Min_cycle;Max_cycle;Signal;HPM_P1;HPM_P2
2022/03/07 00:00:19;;;;;;;11.13;7.95;;;;;;;;;;7333639;19;162916;-15
2022/03/07 00:02:54;;;;;;;10.43;7.63;;;;;;;;;;7332697;19;154055;-13
2022/03/07 00:05:25;;;;;;;12.10;7.47;;;;;;;;;;7332638;19;153673;-15
2022/03/07 00:07:56;;;;;;;11.25;7.82;;;;;;;;;;7332278;19;161959;-18
2022/03/07 00:10:33;;;;;;;11.98;7.63;;;;;;;;;;7329252;19;162594;-14
2022/03/07 00:13:05;;;;;;;10.48;7.70;;;;;;;;;;7331320;19;154024;-14
2022/03/07 00:15:36;;;;;;;9.45;7.30;;;;;;;;;;7333603;19;153947;-14
2022/03/07 00:18:10;;;;;;;11.63;7.70;;;;;;;;;;7331807;19;161909;-14
2022/03/07 00:20:42;;;;;;;10.07;6.95;;;;;;;;;;7331954;19;162504;-15
2022/03/07 00:23:15;;;;;;;9.73;7.35;;;;;;;;;;7331021;19;154330;-14
2022/03/07 00:25:46;;;;;;;9.10;7.07;;;;;;;;;;7332356;19;153578;-15
2022/03/07 00:28:18;;;;;;;10.02;7.13;;;;;;;;;;7334535;19;161800;-14
2022/03/07 00:30:50;;;;;;;10.80;7.20;;;;;;;;;;7331091;19;162402;-14
2022/03/07 00:33:25;;;;;;;7.88;4.78;;;;;;;;;;7330743;19;154125;-14
2022/03/07 00:35:58;;;;;;;8.48;5.97;;;;;;;;;;7331579;19;153441;-13
2022/03/07 00:38:30;;;;;;;7.55;4.97;;;;;;;;;;7330417;19;162097;-14
2022/03/07 13:29:22;;;;;;;1.52;1.42;;;;;;;;;;7370100;19;132558;-12
2022/03/07 13:31:57;;;;;;;1.65;1.52;;;;;;;;;;7364465;19;153466;-15
2022/03/07 13:34:31;;;;;;;2.08;1.30;;;;;;;;;;7367267;19;161861;-14
2022/03/07 13:37:02;;;;;;;1.63;1.40;;;;;;;;;;7363172;19;162632;-15
2022/03/07 13:39:35;;;;;;;1.80;1.70;;;;;;;;;;7364392;19;154175;-13
2022/03/07 13:42:09;;;;;;;1.48;1.27;;;;;;;;;;7364372;19;153581;-14
2022/03/07 13:44:54;;;;;;;2.22;1.48;;;;;;;;;;7363775;19;162029;-14
2022/03/07 13:47:27;;;;;;;3.70;1.48;;;;;;;;;;7363503;19;162544;-13
2022/03/07 13:50:03;;;;;;;1.90;1.55;;;;;;;;;;7368199;19;154003;-14
2022/03/07 13:52:36;;;;;;;1.77;1.45;;;;;;;;;;7362822;19;153510;-14
2022/03/07 13:55:09;;;;;;;1.27;1.20;;;;;;;;;;7363559;19;161845;-14
2022/03/07 13:57:42;;;;;;;3.03;1.60;;;;;;;;;;7362337;19;162481;-14
2022/03/07 14:00:19;;;;;;;1.38;1.27;;;;;;;;;;7363317;19;154006;-13
2022/03/07 14:02:52;;;;;;;1.95;1.25;;;;;;;;;;7363413;19;153532;-13
2022/03/07 14:05:42;;;;;;;3.15;1.60;;;;;;;;;;7363042;19;161880;-14
2022/03/07 14:08:14;;;;;;;2.67;1.60;;;;;;;;;;7363258;19;162355;-13
2022/03/07 14:10:59;;;;;;;1.60;1.38;;;;;;;;;;7366039;19;153932;-14
2022/03/07 14:13:41;;;;;;;4.80;1.75;;;;;;;;;;7367027;19;153676;-13
2022/03/07 14:16:17;;;;;;;2.13;1.63;;;;;;;;;;7366327;19;161854;-13
2022/03/07 14:18:51;;;;;;;3.95;1.85;;;;;;;;;;7363013;19;162551;-14
2022/03/07 14:21:23;;;;;;;2.17;1.50;;;;;;;;;;7366410;19;155361;-14
2022/03/07 14:24:03;;;;;;;4.03;1.67;;;;;;;;;;7365300;19;153643;-14
2022/03/07 14:26:34;;;;;;;3.63;1.50;;;;;;;;;;7362732;19;161861;-14
2022/03/07 14:29:11;;;;;;;2.25;1.55;;;;;;;;;;7346150;19;162746;-14
2022/03/07 14:31:45;;;;;;;3.08;1.88;;;;;;;;;;7338959;19;153982;-14
2022/03/07 14:34:16;;;;;;;2.95;1.65;;;;;;;;;;7339155;19;153465;-15
2022/03/07 14:36:48;;;;;;;3.10;1.40;;;;;;;;;;7332665;19;161876;-15
2022/03/07 14:39:19;;;;;;;2.28;1.85;;;;;;;;;;7330683;19;162577;-15
2022/03/07 14:41:50;;;;;;;4.93;1.75;;;;;;;;;;7333373;19;153724;-16
2022/03/07 14:44:33;;;;;;;3.40;1.50;;;;;;;;;;7334214;19;153712;-15
2022/03/07 14:47:10;;;;;;;3.92;1.58;;;;;;;;;;7333410;19;161908;-15
2022/03/07 14:49:44;;;;;;;3.45;1.58;;;;;;;;;;7333485;19;162530;-15
2022/03/07 14:52:20;;;;;;;2.08;1.55;;;;;;;;;;7333914;19;154042;-14
2022/03/07 14:54:52;;;;;;;1.80;1.70;;;;;;;;;;7333733;19;153700;-14
2022/03/07 14:57:33;;;;;;;2.55;1.58;;;;;;;;;;7332956;19;161794;-16
2022/03/07 15:00:05;;;;;;;3.30;1.73;;;;;;;;;;7333238;19;162271;-14
2022/03/07 15:02:40;;;;;;;1.70;1.30;;;;;;;;;;7333611;19;153928;-14
2022/03/07 15:05:12;;;;;;;2.83;1.83;;;;;;;;;;7333396;19;153921;-16
2022/03/07 15:07:43;;;;;;;2.22;2.00;;;;;;;;;;7333304;19;162077;-14
2022/03/07 15:10:15;;;;;;;4.20;1.73;;;;;;;;;;7331879;19;162780;-14
2022/03/07 15:12:46;;;;;;;2.35;1.55;;;;;;;;;;7333455;19;154198;-16
2022/03/07 15:15:17;;;;;;;2.80;1.95;;;;;;;;;;7333420;19;153514;-15
2022/03/07 15:17:51;;;;;;;2.67;1.40;;;;;;;;;;7332567;19;161772;-12
2022/03/07 15:20:22;;;;;;;2.35;1.75;;;;;;;;;;7332672;19;162465;-11
2022/03/07 15:22:53;;;;;;;3.33;1.63;;;;;;;;;;7333225;19;154600;-14
2022/03/07 15:25:24;;;;;;;2.80;1.50;;;;;;;;;;7333148;19;153543;-15
2022/03/07 15:27:56;;;;;;;2.63;1.63;;;;;;;;;;7331296;19;161926;-15
2022/03/07 15:30:27;;;;;;;1.98;1.45;;;;;;;;;;7332475;19;162384;-14
2022/03/07 15:33:01;;;;;;;2.58;1.70;;;;;;;;;;7332612;19;153973;-14
2022/03/07 15:35:32;;;;;;;1.60;1.48;;;;;;;;;;7332578;19;153721;-13
2022/03/07 15:38:04;;;;;;;3.88;1.88;;;;;;;;;;7332041;19;162092;-14
2022/03/07 15:40:35;;;;;;;1.85;1.60;;;;;;;;;;7329708;19;162994;-13
2022/03/07 15:43:06;;;;;;;2.80;1.50;;;;;;;;;;7332665;19;154202;-14
2022/03/07 15:45:38;;;;;;;1.85;1.60;;;;;;;;;;7332266;19;153522;-14
2022/03/07 15:48:13;;;;;;;2.08;1.88;;;;;;;;;;7332275;19;161800;-15
2022/03/07 15:50:44;;;;;;;1.88;1.60;;;;;;;;;;7331784;19;162439;-13
2022/03/07 15:53:16;;;;;;;3.13;1.60;;;;;;;;;;7332115;19;153908;-15
2022/03/07 15:55:50;;;;;;;2.05;1.85;;;;;;;;;;7332342;19;153559;-14
2022/03/07 15:58:22;;;;;;;1.65;1.55;;;;;;;;;;7330330;19;162142;-14
2022/03/07 16:00:54;;;;;;;1.70;1.60;;;;;;;;;;7331573;19;162385;-13
2022/03/07 16:03:28;;;;;;;2.47;1.55;;;;;;;;;;7332266;19;153953;-14
2022/03/07 16:05:59;;;;;;;2.15;1.95;;;;;;;;;;7332043;19;153649;-14
2022/03/07 16:08:30;;;;;;;2.28;2.05;;;;;;;;;;7331221;19;161861;-14
2022/03/07 16:11:02;;;;;;;3.25;1.92;;;;;;;;;;7331325;19;162543;-14
2022/03/07 16:13:33;;;;;;;3.65;1.83;;;;;;;;;;7331931;19;153894;-14
2022/03/07 16:16:05;;;;;;;3.70;1.80;;;;;;;;;;7331647;19;153712;-14
2022/03/07 16:18:39;;;;;;;2.28;1.70;;;;;;;;;;7330895;19;161858;-14
2022/03/07 16:21:10;;;;;;;5.35;1.90;;;;;;;;;;7331491;19;162400;-14
2022/03/07 16:23:42;;;;;;;3.08;2.08;;;;;;;;;;7331651;19;154344;-14
2022/03/07 16:26:13;;;;;;;2.20;1.80;;;;;;;;;;7330885;19;153539;-16
2022/03/07 16:28:44;;;;;;;2.15;1.70;;;;;;;;;;7328407;19;161913;-13
2022/03/07 16:31:15;;;;;;;3.30;1.80;;;;;;;;;;7330226;19;162632;-14
2022/03/07 16:33:50;;;;;;;2.28;2.08;;;;;;;;;;7330635;19;153982;-13
2022/03/07 16:36:21;;;;;;;2.58;1.70;;;;;;;;;;7330985;19;153564;-15
2022/03/07 16:38:53;;;;;;;3.20;1.88;;;;;;;;;;7330268;19;161832;-15
2022/03/07 16:41:27;;;;;;;1.77;1.65;;;;;;;;;;7330880;19;162397;-14
2022/03/07 16:43:58;;;;;;;1.70;1.60;;;;;;;;;;7330631;19;154001;-15
2022/03/07 16:46:32;;;;;;;3.97;1.60;;;;;;;;;;7330815;19;153613;-14
2022/03/07 16:49:06;;;;;;;1.80;1.70;;;;;;;;;;7330721;19;161817;-14
2022/03/07 16:51:38;;;;;;;2.97;1.77;;;;;;;;;;7328890;19;162667;-13
2022/03/07 16:54:09;;;;;;;1.98;1.77;;;;;;;;;;7329823;19;153909;-13
2022/03/07 16:56:42;;;;;;;1.67;1.58;;;;;;;;;;7330908;19;153512;-14
2022/03/07 16:59:14;;;;;;;4.57;2.10;;;;;;;;;;7329864;19;161997;-14
2022/03/07 17:01:45;;;;;;;2.30;2.08;;;;;;;;;;7330346;19;162543;-14
2022/03/07 17:04:19;;;;;;;3.00;1.80;;;;;;;;;;7330655;19;153941;-15
2022/03/07 17:06:51;;;;;;;3.28;2.03;;;;;;;;;;7330146;19;154102;-14
2022/03/07 17:09:24;;;;;;;3.58;2.20;;;;;;;;;;7329879;19;161810;-13
2022/03/07 17:11:56;;;;;;;4.00;2.30;;;;;;;;;;7329856;19;162571;-15
2022/03/07 17:14:27;;;;;;;2.10;1.92;;;;;;;;;;7330113;19;154092;-13
2022/03/07 17:16:58;;;;;;;2.53;1.92;;;;;;;;;;7330055;19;153670;-14
2022/03/07 17:19:32;;;;;;;3.03;1.92;;;;;;;;;;7328917;19;161872;-13
2022/03/07 17:22:04;;;;;;;4.28;1.90;;;;;;;;;;7328225;19;162634;-15
2022/03/07 17:24:35;;;;;;;2.15;1.95;;;;;;;;;;7329623;19;153941;-15
2022/03/07 17:27:08;;;;;;;2.28;2.08;;;;;;;;;;7327566;19;153507;-14
2022/03/07 17:29:40;;;;;;;4.40;2.25;;;;;;;;;;7327869;19;161917;-15
2022/03/07 17:32:11;;;;;;;2.03;1.92;;;;;;;;;;7328638;19;162429;-14
2022/03/07 17:34:45;;;;;;;2.20;1.90;;;;;;;;;;7329685;19;153950;-14
2022/03/07 17:37:16;;;;;;;2.30;2.10;;;;;;;;;;7328314;19;153752;-15
2022/03/07 17:39:48;;;;;;;5.28;2.38;;;;;;;;;;7328390;19;161783;-15
2022/03/07 17:42:19;;;;;;;2.92;2.10;;;;;;;;;;7329039;19;162718;-15
2022/03/07 17:44:50;;;;;;;3.03;2.45;;;;;;;;;;7329016;19;154232;-14
2022/03/07 17:47:21;;;;;;;2.78;2.25;;;;;;;;;;7328920;19;153571;-14
2022/03/07 17:49:55;;;;;;;3.72;2.30;;;;;;;;;;7328609;19;162156;-17
2022/03/07 17:52:27;;;;;;;3.22;2.05;;;;;;;;;;7328478;19;162542;-15
2022/03/07 17:54:58;;;;;;;3.95;2.17;;;;;;;;;;7328825;19;154115;-14
2022/03/07 17:57:29;;;;;;;2.40;2.20;;;;;;;;;;7328575;19;153670;-14
2022/03/07 18:00:01;;;;;;;4.85;3.00;;;;;;;;;;7327510;19;162056;-13
2022/03/07 18:02:32;;;;;;;3.22;2.50;;;;;;;;;;7327903;19;162644;-14
2022/03/07 18:05:07;;;;;;;2.17;1.98;;;;;;;;;;7333013;19;154061;-13
2022/03/07 18:07:38;;;;;;;3.80;2.40;;;;;;;;;;7335216;19;153647;-13
2022/03/07 18:10:11;;;;;;;5.38;2.28;;;;;;;;;;7334339;19;161854;-13
2022/03/07 18:12:42;;;;;;;4.57;2.07;;;;;;;;;;7334849;19;162626;-14
2022/03/07 18:15:14;;;;;;;4.13;2.10;;;;;;;;;;7334968;19;154094;-13
2022/03/07 18:17:45;;;;;;;3.83;2.00;;;;;;;;;;7334907;19;153515;-14
2022/03/07 18:20:19;;;;;;;4.13;2.47;;;;;;;;;;7334009;19;161748;-14
2022/03/07 18:22:51;;;;;;;3.78;2.30;;;;;;;;;;7333241;19;162706;-14
2022/03/07 18:25:22;;;;;;;2.78;2.20;;;;;;;;;;7334795;19;153948;-14
2022/03/07 18:27:56;;;;;;;3.90;2.50;;;;;;;;;;7331937;19;153486;-14
2022/03/07 18:30:27;;;;;;;2.70;2.42;;;;;;;;;;7334195;19;161950;-15
2022/03/07 18:32:59;;;;;;;4.75;2.50;;;;;;;;;;7332828;19;162468;-13
2022/03/07 18:35:33;;;;;;;4.35;2.50;;;;;;;;;;7334415;19;153978;-15
2022/03/07 18:38:04;;;;;;;3.28;2.05;;;;;;;;;;7334363;19;153524;-13
2022/03/07 18:40:37;;;;;;;2.25;2.13;;;;;;;;;;7333047;19;161965;-13
2022/03/07 18:43:09;;;;;;;2.33;2.10;;;;;;;;;;7332826;19;162565;-14
2022/03/07 18:45:41;;;;;;;2.63;2.40;;;;;;;;;;7332988;19;154142;-13
2022/03/07 18:48:13;;;;;;;3.13;2.40;;;;;;;;;;7334022;19;153523;-13
2022/03/07 18:50:46;;;;;;;4.38;2.67;;;;;;;;;;7333607;19;161971;-15
2022/03/07 18:53:19;;;;;;;2.40;2.20;;;;;;;;;;7333374;19;162482;-14
2022/03/07 18:55:50;;;;;;;2.72;2.10;;;;;;;;;;7333699;19;154037;-13
2022/03/07 18:58:22;;;;;;;3.08;2.20;;;;;;;;;;7333576;19;153611;-13
2022/03/07 19:00:53;;;;;;;2.53;2.22;;;;;;;;;;7331381;19;161807;-15
2022/03/07 19:03:25;;;;;;;2.92;2.10;;;;;;;;;;7333050;19;162496;-13
2022/03/07 19:05:59;;;;;;;3.33;2.45;;;;;;;;;;7333528;19;153953;-13
2022/03/07 19:08:30;;;;;;;2.97;2.30;;;;;;;;;;7332504;19;153634;-14
2022/03/07 19:11:01;;;;;;;3.67;2.83;;;;;;;;;;7333076;19;161956;-13
2022/03/07 19:13:33;;;;;;;2.58;1.95;;;;;;;;;;7332841;19;162527;-14
2022/03/07 19:16:04;;;;;;;2.72;2.50;;;;;;;;;;7332975;19;153994;-14
2022/03/07 19:18:35;;;;;;;4.07;2.42;;;;;;;;;;7333014;19;154098;-13
2022/03/07 19:21:11;;;;;;;2.40;2.20;;;;;;;;;;7331898;19;162084;-13
2022/03/07 19:23:42;;;;;;;3.25;2.17;;;;;;;;;;7331493;19;162720;-14
2022/03/07 19:26:13;;;;;;;2.65;2.45;;;;;;;;;;7332792;19;153898;-13
2022/03/07 19:28:44;;;;;;;5.13;2.20;;;;;;;;;;7330568;19;153543;-13
2022/03/07 19:31:16;;;;;;;3.67;2.53;;;;;;;;;;7332321;19;161771;-13
2022/03/07 19:33:47;;;;;;;2.45;2.25;;;;;;;;;;7332419;19;162942;-15
2022/03/07 19:36:22;;;;;;;4.10;2.42;;;;;;;;;;7332328;19;154263;-15
2022/03/07 19:38:53;;;;;;;3.00;2.45;;;;;;;;;;7332458;19;153757;-14
2022/03/07 19:41:24;;;;;;;2.42;2.22;;;;;;;;;;7331512;19;161886;-14
2022/03/07 19:43:56;;;;;;;2.70;2.38;;;;;;;;;;7332343;19;162520;-15
2022/03/07 19:46:27;;;;;;;3.35;2.55;;;;;;;;;;7332737;19;153962;-14
2022/03/07 19:48:58;;;;;;;2.67;2.20;;;;;;;;;;7332716;19;153661;-14
2022/03/07 19:51:32;;;;;;;3.95;2.40;;;;;;;;;;7331890;19;161751;-16
2022/03/07 19:54:04;;;;;;;2.83;2.40;;;;;;;;;;7332005;19;162470;-14
2022/03/07 19:56:36;;;;;;;3.30;2.40;;;;;;;;;;7331126;19;154315;-15
2022/03/07 19:59:08;;;;;;;2.67;2.47;;;;;;;;;;7332436;19;153355;-15
2022/03/07 20:01:39;;;;;;;2.33;2.17;;;;;;;;;;7330955;19;161965;-13
2022/03/07 20:04:11;;;;;;;3.38;2.35;;;;;;;;;;7331632;19;162393;-14
2022/03/07 20:06:45;;;;;;;2.20;2.00;;;;;;;;;;7332112;19;154113;-12
2022/03/07 20:09:16;;;;;;;4.50;2.40;;;;;;;;;;7331911;19;153838;-15
2022/03/07 20:11:48;;;;;;;3.63;2.80;;;;;;;;;;7331432;19;162120;-14
2022/03/07 20:14:19;;;;;;;2.92;2.60;;;;;;;;;;7331412;19;162580;-14
2022/03/07 20:16:50;;;;;;;3.30;2.20;;;;;;;;;;7331824;19;154044;-13
2022/03/07 20:19:25;;;;;;;2.63;2.42;;;;;;;;;;7331661;19;153897;-12
2022/03/07 20:21:59;;;;;;;2.60;2.38;;;;;;;;;;7328703;19;161999;-15
2022/03/07 20:24:30;;;;;;;3.83;2.53;;;;;;;;;;7330177;19;162398;-17
2022/03/07 20:27:02;;;;;;;2.20;2.10;;;;;;;;;;7329566;19;154031;-12
2022/03/07 20:29:33;;;;;;;2.45;2.20;;;;;;;;;;7331241;19;153495;-13
2022/03/07 20:32:05;;;;;;;3.03;2.72;;;;;;;;;;7330722;19;162130;-13
2022/03/07 20:34:37;;;;;;;2.58;2.30;;;;;;;;;;7330605;19;162426;-14
2022/03/07 20:37:13;;;;;;;4.40;3.25;;;;;;;;;;7330924;19;153990;-14
2022/03/07 20:39:44;;;;;;;5.00;3.55;;;;;;;;;;7330867;19;153630;-13
2022/03/07 20:42:16;;;;;;;3.40;2.40;;;;;;;;;;7329317;19;161983;-14
2022/03/07 20:44:47;;;;;;;5.10;3.35;;;;;;;;;;7330431;19;162631;-14
2022/03/07 20:47:19;;;;;;;26.33;14.23;;;;;;;;;;7332378;19;154119;-14
2022/03/07 20:49:51;;;;;;;90.40;57.38;;;;;;;;;;7330430;19;153616;-15
2022/03/07 20:52:25;;;;;;;179.27;126.82;;;;;;;;;;7330069;19;161705;-15
2022/03/07 20:54:56;;;;;;;245.80;171.68;;;;;;;;;;7329915;19;162587;-15
2022/03/07 20:57:27;;;;;;;265.83;193.60;;;;;;;;;;7330294;19;153960;-16
2022/03/07 20:59:59;;;;;;;243.95;167.38;;;;;;;;;;7330339;19;153908;-16
2022/03/07 21:02:30;;;;;;;241.35;167.00;;;;;;;;;;7328509;19;161822;-13
2022/03/07 21:05:01;;;;;;;225.07;153.70;;;;;;;;;;7329617;19;162550;-12
2022/03/07 21:07:35;;;;;;;208.40;148.02;;;;;;;;;;7329995;19;153973;-13
2022/03/07 21:10:08;;;;;;;196.43;135.05;;;;;;;;;;7329512;19;154935;-13
2022/03/07 21:12:40;;;;;;;195.25;133.63;;;;;;;;;;7330220;19;161539;-13
2022/03/07 21:15:12;;;;;;;186.23;130.07;;;;;;;;;;7329449;19;163038;-13
2022/03/07 21:17:44;;;;;;;174.30;120.00;;;;;;;;;;7332654;19;154153;-14
2022/03/07 21:20:16;;;;;;;162.67;117.73;;;;;;;;;;7332401;19;153703;-14
2022/03/07 21:22:50;;;;;;;159.68;114.47;;;;;;;;;;7331757;19;162191;-14
2022/03/07 21:25:21;;;;;;;157.48;109.85;;;;;;;;;;7328984;19;162565;-13
2022/03/07 21:27:52;;;;;;;152.60;109.90;;;;;;;;;;7328778;19;153767;-15
2022/03/07 21:30:24;;;;;;;151.98;113.07;;;;;;;;;;7329238;19;153675;-14
2022/03/07 21:32:57;;;;;;;162.90;112.10;;;;;;;;;;7331927;19;161998;-14
2022/03/07 21:35:28;;;;;;;146.87;108.70;;;;;;;;;;7331800;19;162462;-15
2022/03/07 21:38:02;;;;;;;149.68;108.32;;;;;;;;;;7332866;19;153964;-21
2022/03/07 21:40:34;;;;;;;153.98;110.25;;;;;;;;;;7335399;19;153711;-14
2022/03/07 21:43:05;;;;;;;146.57;107.78;;;;;;;;;;7335404;19;161971;-16
2022/03/07 21:45:37;;;;;;;148.45;110.07;;;;;;;;;;7339908;19;162441;-14
2022/03/07 21:48:09;;;;;;;153.25;112.63;;;;;;;;;;7335899;19;154089;-15
2022/03/07 21:50:40;;;;;;;153.95;112.93;;;;;;;;;;7335881;19;154001;-16
2022/03/07 21:53:14;;;;;;;152.55;108.68;;;;;;;;;;7334544;19;161799;-15
2022/03/07 21:55:46;;;;;;;148.80;106.15;;;;;;;;;;7337595;19;162678;-16
2022/03/07 21:58:17;;;;;;;135.88;105.47;;;;;;;;;;7338531;19;154096;-14
2022/03/07 22:00:58;;;;;;;143.70;103.38;;;;;;;;;;7338835;19;153722;-16
2022/03/07 22:03:29;;;;;;;135.13;102.95;;;;;;;;;;7337385;19;162435;-16
2022/03/07 22:06:04;;;;;;;139.13;104.00;;;;;;;;;;7337925;19;162452;-14
2022/03/07 22:08:38;;;;;;;141.25;103.85;;;;;;;;;;7338387;19;154341;-13
2022/03/07 22:11:10;;;;;;;139.93;99.43;;;;;;;;;;7338482;19;153968;-15
2022/03/07 22:13:42;;;;;;;135.50;99.10;;;;;;;;;;7336763;19;161925;-14
2022/03/07 22:16:14;;;;;;;132.45;100.88;;;;;;;;;;7338147;19;162549;-14
2022/03/07 22:18:45;;;;;;;132.60;98.03;;;;;;;;;;7337804;19;154144;-14
2022/03/07 22:21:17;;;;;;;132.68;98.50;;;;;;;;;;7336891;19;154185;-15
2022/03/07 22:23:52;;;;;;;136.65;100.38;;;;;;;;;;7336829;19;161759;-14
2022/03/07 22:26:23;;;;;;;130.25;99.80;;;;;;;;;;7337548;19;162531;-14
2022/03/07 22:28:55;;;;;;;135.05;99.88;;;;;;;;;;7333893;19;153713;-14
2022/03/07 22:31:27;;;;;;;;;;;;;;;;;;7338341;19;153648;-14
2022/03/07 22:33:59;;;;;;;134.63;97.28;;;;;;;;;;7337395;19;162269;-14
2022/03/07 22:36:31;;;;;;;135.18;98.97;;;;;;;;;;7336405;19;162499;-14
2022/03/07 22:39:06;;;;;;;131.57;100.50;;;;;;;;;;7337898;19;153957;-14
2022/03/07 22:41:38;;;;;;;124.55;88.85;;;;;;;;;;7335814;19;153694;-15
2022/03/07 22:44:09;;;;;;;123.53;93.03;;;;;;;;;;7335889;19;161793;-14
2022/03/07 22:46:41;;;;;;;125.72;96.22;;;;;;;;;;7337267;19;163363;-15
2022/03/07 22:49:12;;;;;;;129.75;94.18;;;;;;;;;;7336895;19;154017;-14
2022/03/07 22:51:44;;;;;;;124.13;94.85;;;;;;;;;;7337507;19;153616;-15
2022/03/07 22:54:18;;;;;;;118.85;91.40;;;;;;;;;;7335535;19;161855;-14
2022/03/07 22:56:49;;;;;;;125.18;93.05;;;;;;;;;;7336733;19;162510;-14
2022/03/07 22:59:20;;;;;;;120.10;92.13;;;;;;;;;;7336175;19;153798;-14
2022/03/07 23:01:52;;;;;;;122.05;91.93;;;;;;;;;;7337250;19;153730;-13
2022/03/07 23:04:23;;;;;;;118.07;91.38;;;;;;;;;;7334983;19;162221;-14
2022/03/07 23:09:41;;;;;;;112.70;88.65;;;;;;;;;;7335749;19;154088;-15
2022/03/07 23:12:12;;;;;;;121.90;90.35;;;;;;;;;;7336250;19;153666;-15
2022/03/07 23:14:43;;;;;;;115.72;88.78;;;;;;;;;;7336356;19;161848;-15
2022/03/07 23:17:15;;;;;;;116.95;90.05;;;;;;;;;;7336146;19;162365;-13
2022/03/07 23:19:46;;;;;;;114.60;85.90;;;;;;;;;;7333157;19;154032;-15
2022/03/07 23:22:18;;;;;;;105.55;81.80;;;;;;;;;;7334323;19;153618;-15
2022/03/07 23:24:51;;;;;;;109.63;85.38;;;;;;;;;;7331120;19;161964;-14
2022/03/07 23:27:23;;;;;;;111.57;85.90;;;;;;;;;;7331160;19;162534;-15
2022/03/07 23:29:54;;;;;;;106.60;83.00;;;;;;;;;;7332508;19;154041;-17
2022/03/07 23:32:26;;;;;;;115.63;86.30;;;;;;;;;;7332671;19;153557;-14
2022/03/07 23:34:58;;;;;;;105.97;83.82;;;;;;;;;;7332168;19;161863;-14
2022/03/07 23:37:29;;;;;;;109.97;82.43;;;;;;;;;;7330845;19;162636;-14
2022/03/07 23:40:03;;;;;;;105.25;82.30;;;;;;;;;;7332651;19;154043;-14
2022/03/07 23:42:35;;;;;;;101.93;79.70;;;;;;;;;;7332434;19;153954;-14
2022/03/07 23:45:08;;;;;;;107.55;84.00;;;;;;;;;;7330427;19;161939;-14
2022/03/07 23:47:40;;;;;;;103.85;80.55;;;;;;;;;;7331964;19;162533;-15
2022/03/07 23:50:12;;;;;;;107.45;78.00;;;;;;;;;;7332413;19;154126;-15
2022/03/07 23:52:44;;;;;;;107.07;80.33;;;;;;;;;;7332211;19;153669;-14
2022/03/07 23:55:18;;;;;;;107.50;80.72;;;;;;;;;;7330348;19;161696;-14
2022/03/07 23:57:49;;;;;;;104.25;76.57;;;;;;;;;;7332405;19;162420;-14
